PWSweather.com
Personal Weather Stations
Station Observations
KNYSYRAC2
Fairmount Hills, Fairmount, NY 13219

Fairmount HillsFairmount, NY 13219

Lat: 43.03602, Lon: -76.247151

Elevation: 663

Station Type: Ambient Weather WS-2080

http://weather.cerchia.com

High Low Average
Temperature 57.5°F14.2°F 31.7°F-0.2°F 43.9°F6.6°F
Dew Point 31.1°F-0.5°F 14.9°F-9.5°F 23.3°F-4.8°F
Winds 7.3 mph NE11.7 mph NE Calm Calm 2.1 mph 3.4 mph
Wind Gusts 15.1 mph24.3 mph -- 6.2 mph10.0 mph
Humidity 83% 21% 47%
Pressure 30.10 in1019.30 in 29.98 in1015.20 in -
Precipitation 0.00 in0.00 in - -
Hour Temp Dew Point Humidity Winds Wind Gusts Pressure Precip Precip Rate Daily Precip Total
12:00 AM 40.4°F4.7°C 20.1°F-6.6°C 44% 2.5 mph WNW4.0 kmh WNW 8.7 mph14.0 kmh 29.98 in1015.2 mb 0.00 in0.0 mm 0.00 in0.0 mm 0.00 in0.0 mm
12:15 AM 40.0°F4.4°C 19.8°F-6.8°C 44% 3.1 mph WSW5.0 kmh WSW 7.5 mph12.1 kmh 29.98 in1015.2 mb 0.00 in0.0 mm 0.00 in0.0 mm 0.00 in0.0 mm
12:30 AM 40.0°F4.4°C 19.8°F-6.8°C 44% 2.9 mph WSW4.7 kmh WSW 6.7 mph10.8 kmh 29.98 in1015.2 mb 0.00 in0.0 mm 0.00 in0.0 mm 0.00 in0.0 mm
12:45 AM 39.5°F4.2°C 20.4°F-6.4°C 46% 1.6 mph W2.6 kmh W 6.7 mph10.8 kmh 29.98 in1015.2 mb 0.00 in0.0 mm 0.00 in0.0 mm 0.00 in0.0 mm
01:00 AM 38.9°F3.8°C 20.4°F-6.4°C 47% 1.2 mph W1.9 kmh W 4.8 mph7.7 kmh 29.98 in1015.2 mb 0.00 in0.0 mm 0.00 in0.0 mm 0.00 in0.0 mm
01:15 AM 38.7°F3.7°C 20.7°F-6.3°C 48% 1.5 mph W2.4 kmh W 6.7 mph10.8 kmh 29.99 in1015.6 mb 0.00 in0.0 mm 0.00 in0.0 mm 0.00 in0.0 mm
01:30 AM 38.6°F3.7°C 21.5°F-5.8°C 50% 1.5 mph WNW2.4 kmh WNW 5.6 mph9.0 kmh 29.98 in1015.2 mb 0.00 in0.0 mm 0.00 in0.0 mm 0.00 in0.0 mm
01:45 AM 38.4°F3.6°C 21.8°F-5.7°C 51% 1.0 mph W1.6 kmh W 3.9 mph6.3 kmh 29.98 in1015.2 mb 0.00 in0.0 mm 0.00 in0.0 mm 0.00 in0.0 mm
02:00 AM 38.2°F3.4°C 23.0°F-5.0°C 54% 1.5 mph WSW2.4 kmh WSW 3.9 mph6.3 kmh 29.99 in1015.6 mb 0.00 in0.0 mm 0.00 in0.0 mm 0.00 in0.0 mm
02:15 AM 37.7°F3.2°C 23.4°F-4.8°C 56% 0.2 mph W0.3 kmh W 2.0 mph3.2 kmh 29.99 in1015.6 mb 0.00 in0.0 mm 0.00 in0.0 mm 0.00 in0.0 mm
02:30 AM 37.1°F2.8°C 23.3°F-4.8°C 57% 0.5 mph W0.8 kmh W 3.9 mph6.3 kmh 29.99 in1015.6 mb 0.00 in0.0 mm 0.00 in0.0 mm 0.00 in0.0 mm
02:45 AM 36.8°F2.7°C 23.8°F-4.6°C 59% 0.4 mph WSW0.6 kmh WSW 2.8 mph4.5 kmh 29.99 in1015.6 mb 0.00 in0.0 mm 0.00 in0.0 mm 0.00 in0.0 mm
03:00 AM 36.4°F2.4°C 24.2°F-4.3°C 61% 0.5 mph W0.8 kmh W 2.8 mph4.5 kmh 29.99 in1015.6 mb 0.00 in0.0 mm 0.00 in0.0 mm 0.00 in0.0 mm
03:15 AM 35.9°F2.2°C 22.9°F-5.1°C 59% 0.1 mph S0.2 kmh S 2.0 mph3.2 kmh 30.00 in1015.9 mb 0.00 in0.0 mm 0.00 in0.0 mm 0.00 in0.0 mm
03:30 AM 35.5°F1.9°C 23.8°F-4.6°C 62% 0.4 mph SSW0.6 kmh SSW 2.0 mph3.2 kmh 30.00 in1015.9 mb 0.00 in0.0 mm 0.00 in0.0 mm 0.00 in0.0 mm
03:45 AM 35.1°F1.7°C 24.2°F-4.3°C 64% 0.2 mph NNW0.3 kmh NNW 2.8 mph4.5 kmh 30.01 in1016.3 mb 0.00 in0.0 mm 0.00 in0.0 mm 0.00 in0.0 mm
04:00 AM 34.8°F1.6°C 24.9°F-3.9°C 67% Calm Calm 0.8 mph1.3 kmh 30.01 in1016.3 mb 0.00 in0.0 mm 0.00 in0.0 mm 0.00 in0.0 mm
04:15 AM 34.1°F1.2°C 25.6°F-3.6°C 71% 0.3 mph S0.5 kmh S 2.0 mph3.2 kmh 30.01 in1016.3 mb 0.00 in0.0 mm 0.00 in0.0 mm 0.00 in0.0 mm
04:30 AM 33.5°F0.8°C 25.5°F-3.6°C 72% 0.7 mph S1.1 kmh S 2.8 mph4.5 kmh 30.02 in1016.6 mb 0.00 in0.0 mm 0.00 in0.0 mm 0.00 in0.0 mm
04:45 AM 32.8°F0.4°C 25.7°F-3.5°C 75% 1.1 mph S1.8 kmh S 2.8 mph4.5 kmh 30.02 in1016.6 mb 0.00 in0.0 mm 0.00 in0.0 mm 0.00 in0.0 mm
05:00 AM 32.4°F0.2°C 26.0°F-3.3°C 77% Calm Calm -- 30.03 in1016.9 mb 0.00 in0.0 mm 0.00 in0.0 mm 0.00 in0.0 mm
05:15 AM 32.4°F0.2°C 26.7°F-2.9°C 79% 0.9 mph S1.4 kmh S 2.8 mph4.5 kmh 30.03 in1016.9 mb 0.00 in0.0 mm 0.00 in0.0 mm 0.00 in0.0 mm
05:30 AM 32.4°F0.2°C 26.7°F-2.9°C 79% 0.3 mph S0.5 kmh S 2.0 mph3.2 kmh 30.04 in1017.3 mb 0.00 in0.0 mm 0.00 in0.0 mm 0.00 in0.0 mm
05:45 AM 31.7°F-0.2°C 26.3°F-3.2°C 80% 1.0 mph SE1.6 kmh SE 2.8 mph4.5 kmh 30.04 in1017.3 mb 0.00 in0.0 mm 0.00 in0.0 mm 0.00 in0.0 mm
06:00 AM 32.1°F0.1°C 26.9°F-2.8°C 81% 0.1 mph SE0.2 kmh SE 0.8 mph1.3 kmh 30.05 in1017.6 mb 0.00 in0.0 mm 0.00 in0.0 mm 0.00 in0.0 mm
06:15 AM 32.4°F0.2°C 27.0°F-2.8°C 80% 1.0 mph S1.6 kmh S 2.8 mph4.5 kmh 30.05 in1017.6 mb 0.00 in0.0 mm 0.00 in0.0 mm 0.00 in0.0 mm
06:30 AM 31.7°F-0.2°C 26.6°F-3.0°C 81% 0.8 mph S1.3 kmh S 2.8 mph4.5 kmh 30.06 in1017.9 mb 0.00 in0.0 mm 0.00 in0.0 mm 0.00 in0.0 mm
06:45 AM 32.1°F0.1°C 27.5°F-2.5°C 83% 0.3 mph SSE0.5 kmh SSE 2.0 mph3.2 kmh 30.07 in1018.3 mb 0.00 in0.0 mm 0.00 in0.0 mm 0.00 in0.0 mm
07:00 AM 32.8°F0.4°C 28.2°F-2.1°C 83% 0.2 mph S0.3 kmh S 2.0 mph3.2 kmh 30.07 in1018.3 mb 0.00 in0.0 mm 0.00 in0.0 mm 0.00 in0.0 mm
07:15 AM 34.2°F1.2°C 29.3°F-1.5°C 82% Calm Calm -- 30.08 in1018.6 mb 0.00 in0.0 mm 0.00 in0.0 mm 0.00 in0.0 mm
07:30 AM 36.4°F2.4°C 31.1°F-0.5°C 81% 1.0 mph NE1.6 kmh NE 2.8 mph4.5 kmh 30.09 in1019.0 mb 0.00 in0.0 mm 0.00 in0.0 mm 0.00 in0.0 mm
07:45 AM 37.8°F3.2°C 30.6°F-0.8°C 75% 1.8 mph NNE2.9 kmh NNE 4.8 mph7.7 kmh 30.09 in1019.0 mb 0.00 in0.0 mm 0.00 in0.0 mm 0.00 in0.0 mm
08:00 AM 38.7°F3.7°C 30.1°F-1.1°C 71% 2.3 mph NE3.7 kmh NE 4.8 mph7.7 kmh 30.09 in1019.0 mb 0.00 in0.0 mm 0.00 in0.0 mm 0.00 in0.0 mm
08:15 AM 39.8°F4.3°C 29.4°F-1.4°C 66% 1.4 mph NE2.3 kmh NE 5.6 mph9.0 kmh 30.09 in1019.0 mb 0.00 in0.0 mm 0.00 in0.0 mm 0.00 in0.0 mm
08:42 AM 41.6°F5.3°C 23.4°F-4.8°C 48% 2.5 mph SSE4.0 kmh SSE 4.9 mph7.9 kmh 30.09 in1019.0 mb 0.00 in0.0 mm 0.00 in0.0 mm 0.00 in0.0 mm
09:00 AM 42.9°F6.1°C 20.8°F-6.2°C 41% 1.8 mph ENE2.9 kmh ENE 7.5 mph12.1 kmh 30.10 in1019.3 mb 0.00 in0.0 mm 0.00 in0.0 mm 0.00 in0.0 mm
09:15 AM 43.4°F6.3°C 21.3°F-5.9°C 41% 2.1 mph E3.4 kmh E 6.7 mph10.8 kmh 30.09 in1019.0 mb 0.00 in0.0 mm 0.00 in0.0 mm 0.00 in0.0 mm
09:30 AM 44.0°F6.7°C 21.2°F-6.0°C 40% 3.2 mph NE5.1 kmh NE 9.5 mph15.3 kmh 30.10 in1019.3 mb 0.00 in0.0 mm 0.00 in0.0 mm 0.00 in0.0 mm
09:45 AM 44.9°F7.2°C 20.8°F-6.2°C 38% 4.2 mph NE6.8 kmh NE 8.7 mph14.0 kmh 30.10 in1019.3 mb 0.00 in0.0 mm 0.00 in0.0 mm 0.00 in0.0 mm
10:00 AM 45.0°F7.2°C 19.0°F-7.2°C 35% 4.0 mph NE6.4 kmh NE 12.3 mph19.8 kmh 30.10 in1019.3 mb 0.00 in0.0 mm 0.00 in0.0 mm 0.00 in0.0 mm
10:15 AM 45.9°F7.7°C 20.4°F-6.4°C 36% 3.3 mph NE5.3 kmh NE 12.3 mph19.8 kmh 30.09 in1019.0 mb 0.00 in0.0 mm 0.00 in0.0 mm 0.00 in0.0 mm
10:30 AM 45.2°F7.3°C 19.8°F-6.8°C 36% 2.9 mph ENE4.7 kmh ENE 8.7 mph14.0 kmh 30.09 in1019.0 mb 0.00 in0.0 mm 0.00 in0.0 mm 0.00 in0.0 mm
10:45 AM 46.5°F8.1°C 20.9°F-6.2°C 36% 3.3 mph ENE5.3 kmh ENE 8.7 mph14.0 kmh 30.09 in1019.0 mb 0.00 in0.0 mm 0.00 in0.0 mm 0.00 in0.0 mm
11:00 AM 46.8°F8.2°C 19.9°F-6.7°C 34% 3.9 mph ENE6.3 kmh ENE 15.1 mph24.3 kmh 30.09 in1019.0 mb 0.00 in0.0 mm 0.00 in0.0 mm 0.00 in0.0 mm
11:15 AM 47.2°F8.4°C 19.5°F-6.9°C 33% 3.1 mph NE5.0 kmh NE 12.3 mph19.8 kmh 30.09 in1019.0 mb 0.00 in0.0 mm 0.00 in0.0 mm 0.00 in0.0 mm
11:30 AM 47.0°F8.3°C 17.1°F-8.3°C 30% 2.8 mph NE4.5 kmh NE 7.5 mph12.1 kmh 30.09 in1019.0 mb 0.00 in0.0 mm 0.00 in0.0 mm 0.00 in0.0 mm
11:45 AM 48.3°F9.1°C 19.8°F-6.8°C 32% 3.3 mph NE5.3 kmh NE 11.5 mph18.5 kmh 30.08 in1018.6 mb 0.00 in0.0 mm 0.00 in0.0 mm 0.00 in0.0 mm
12:00 PM 48.8°F9.3°C 17.1°F-8.3°C 28% 5.0 mph N8.0 kmh N 11.5 mph18.5 kmh 30.08 in1018.6 mb 0.00 in0.0 mm 0.00 in0.0 mm 0.00 in0.0 mm
12:15 PM 49.0°F9.4°C 18.1°F-7.7°C 29% 4.1 mph ENE6.6 kmh ENE 10.3 mph16.6 kmh 30.07 in1018.3 mb 0.00 in0.0 mm 0.00 in0.0 mm 0.00 in0.0 mm
12:30 PM 49.4°F9.7°C 16.7°F-8.5°C 27% 2.2 mph ENE3.5 kmh ENE 9.5 mph15.3 kmh 30.07 in1018.3 mb 0.00 in0.0 mm 0.00 in0.0 mm 0.00 in0.0 mm
12:45 PM 49.9°F9.9°C 15.4°F-9.2°C 25% 4.5 mph NE7.2 kmh NE 12.3 mph19.8 kmh 30.06 in1017.9 mb 0.00 in0.0 mm 0.00 in0.0 mm 0.00 in0.0 mm
01:00 PM 50.8°F10.4°C 18.0°F-7.8°C 27% 3.3 mph NNE5.3 kmh NNE 8.7 mph14.0 kmh 30.06 in1017.9 mb 0.00 in0.0 mm 0.00 in0.0 mm 0.00 in0.0 mm
01:15 PM 51.5°F10.8°C 14.9°F-9.5°C 23% 4.0 mph NE6.4 kmh NE 13.4 mph21.6 kmh 30.05 in1017.6 mb 0.00 in0.0 mm 0.00 in0.0 mm 0.00 in0.0 mm
01:30 PM 53.0°F11.7°C 18.0°F-7.8°C 25% 2.1 mph ENE3.4 kmh ENE 6.7 mph10.8 kmh 30.04 in1017.3 mb 0.00 in0.0 mm 0.00 in0.0 mm 0.00 in0.0 mm
01:45 PM 53.1°F11.7°C 16.3°F-8.7°C 23% 2.4 mph E3.9 kmh E 6.7 mph10.8 kmh 30.03 in1016.9 mb 0.00 in0.0 mm 0.00 in0.0 mm 0.00 in0.0 mm
02:00 PM 54.8°F12.7°C 20.5°F-6.4°C 26% 2.7 mph NE4.3 kmh NE 6.7 mph10.8 kmh 30.04 in1017.3 mb 0.00 in0.0 mm 0.00 in0.0 mm 0.00 in0.0 mm
02:15 PM 56.2°F13.4°C 17.8°F-7.9°C 22% 2.3 mph E3.7 kmh E 5.6 mph9.0 kmh 30.03 in1016.9 mb 0.00 in0.0 mm 0.00 in0.0 mm 0.00 in0.0 mm
02:30 PM 57.5°F14.2°C 19.9°F-6.7°C 23% 2.1 mph NE3.4 kmh NE 7.5 mph12.1 kmh 30.02 in1016.6 mb 0.00 in0.0 mm 0.00 in0.0 mm 0.00 in0.0 mm
02:45 PM 55.8°F13.2°C 18.5°F-7.5°C 23% 3.1 mph NE5.0 kmh NE 7.5 mph12.1 kmh 30.02 in1016.6 mb 0.00 in0.0 mm 0.00 in0.0 mm 0.00 in0.0 mm
03:00 PM 56.9°F13.8°C 19.4°F-7.0°C 23% 1.9 mph ENE3.1 kmh ENE 6.7 mph10.8 kmh 30.01 in1016.3 mb 0.00 in0.0 mm 0.00 in0.0 mm 0.00 in0.0 mm
03:15 PM 56.2°F13.4°C 17.8°F-7.9°C 22% 4.2 mph NNE6.8 kmh NNE 10.3 mph16.6 kmh 30.01 in1016.3 mb 0.00 in0.0 mm 0.00 in0.0 mm 0.00 in0.0 mm
03:30 PM 55.5°F13.1°C 18.2°F-7.7°C 23% 2.1 mph NNE3.4 kmh NNE 5.6 mph9.0 kmh 30.00 in1015.9 mb 0.00 in0.0 mm 0.00 in0.0 mm 0.00 in0.0 mm
03:45 PM 54.9°F12.7°C 17.8°F-7.9°C 23% 2.3 mph E3.7 kmh E 6.7 mph10.8 kmh 30.00 in1015.9 mb 0.00 in0.0 mm 0.00 in0.0 mm 0.00 in0.0 mm
04:00 PM 54.4°F12.4°C 17.3°F-8.2°C 23% 3.2 mph NE5.1 kmh NE 7.5 mph12.1 kmh 29.99 in1015.6 mb 0.00 in0.0 mm 0.00 in0.0 mm 0.00 in0.0 mm
04:15 PM 54.2°F12.3°C 15.1°F-9.4°C 21% 2.3 mph NNE3.7 kmh NNE 6.7 mph10.8 kmh 30.00 in1015.9 mb 0.00 in0.0 mm 0.00 in0.0 mm 0.00 in0.0 mm
04:30 PM 53.9°F12.2°C 17.8°F-7.9°C 24% 4.2 mph NNE6.8 kmh NNE 12.3 mph19.8 kmh 29.99 in1015.6 mb 0.00 in0.0 mm 0.00 in0.0 mm 0.00 in0.0 mm
04:45 PM 52.2°F11.2°C 23.2°F-4.9°C 32% 5.2 mph NNE8.4 kmh NNE 11.5 mph18.5 kmh 30.00 in1015.9 mb 0.00 in0.0 mm 0.00 in0.0 mm 0.00 in0.0 mm
05:00 PM 51.9°F11.1°C 23.6°F-4.7°C 33% 5.2 mph N8.4 kmh N 11.5 mph18.5 kmh 30.00 in1015.9 mb 0.00 in0.0 mm 0.00 in0.0 mm 0.00 in0.0 mm
05:15 PM 51.3°F10.7°C 22.4°F-5.3°C 32% 4.5 mph N7.2 kmh N 9.5 mph15.3 kmh 30.01 in1016.3 mb 0.00 in0.0 mm 0.00 in0.0 mm 0.00 in0.0 mm
05:30 PM 50.8°F10.4°C 24.1°F-4.4°C 35% 5.5 mph N8.9 kmh N 10.3 mph16.6 kmh 30.01 in1016.3 mb 0.00 in0.0 mm 0.00 in0.0 mm 0.00 in0.0 mm
05:45 PM 50.3°F10.2°C 25.6°F-3.6°C 38% 5.5 mph N8.9 kmh N 10.3 mph16.6 kmh 30.01 in1016.3 mb 0.00 in0.0 mm 0.00 in0.0 mm 0.00 in0.0 mm
06:00 PM 49.5°F9.7°C 24.9°F-3.9°C 38% 5.3 mph N8.5 kmh N 10.3 mph16.6 kmh 30.02 in1016.6 mb 0.00 in0.0 mm 0.00 in0.0 mm 0.00 in0.0 mm
06:15 PM 49.0°F9.4°C 25.1°F-3.8°C 39% 6.3 mph N10.1 kmh N 11.5 mph18.5 kmh 30.02 in1016.6 mb 0.00 in0.0 mm 0.00 in0.0 mm 0.00 in0.0 mm
06:30 PM 48.3°F9.1°C 25.6°F-3.6°C 41% 7.3 mph NE11.7 kmh NE 14.3 mph23.0 kmh 30.02 in1016.6 mb 0.00 in0.0 mm 0.00 in0.0 mm 0.00 in0.0 mm
06:45 PM 47.9°F8.8°C 26.5°F-3.1°C 43% 4.7 mph NNE7.6 kmh NNE 8.7 mph14.0 kmh 30.02 in1016.6 mb 0.00 in0.0 mm 0.00 in0.0 mm 0.00 in0.0 mm
07:00 PM 47.6°F8.7°C 26.7°F-2.9°C 44% 2.4 mph N3.9 kmh N 7.5 mph12.1 kmh 30.02 in1016.6 mb 0.00 in0.0 mm 0.00 in0.0 mm 0.00 in0.0 mm
07:15 PM 47.0°F8.3°C 27.3°F-2.6°C 46% 2.3 mph N3.7 kmh N 7.5 mph12.1 kmh 30.02 in1016.6 mb 0.00 in0.0 mm 0.00 in0.0 mm 0.00 in0.0 mm
07:30 PM 46.7°F8.2°C 27.0°F-2.8°C 46% 2.9 mph N4.7 kmh N 7.5 mph12.1 kmh 30.03 in1016.9 mb 0.00 in0.0 mm 0.00 in0.0 mm 0.00 in0.0 mm
07:45 PM 46.5°F8.1°C 27.3°F-2.6°C 47% 1.6 mph NNW2.6 kmh NNW 6.7 mph10.8 kmh 30.03 in1016.9 mb 0.00 in0.0 mm 0.00 in0.0 mm 0.00 in0.0 mm
08:00 PM 46.1°F7.8°C 27.0°F-2.8°C 47% 0.9 mph NNW1.4 kmh NNW 4.8 mph7.7 kmh 30.03 in1016.9 mb 0.00 in0.0 mm 0.00 in0.0 mm 0.00 in0.0 mm
08:15 PM 45.9°F7.7°C 27.3°F-2.6°C 48% 1.2 mph NW1.9 kmh NW 3.9 mph6.3 kmh 30.03 in1016.9 mb 0.00 in0.0 mm 0.00 in0.0 mm 0.00 in0.0 mm
08:30 PM 45.8°F7.7°C 27.7°F-2.4°C 49% 1.2 mph NW1.9 kmh NW 3.9 mph6.3 kmh 30.04 in1017.3 mb 0.00 in0.0 mm 0.00 in0.0 mm 0.00 in0.0 mm
08:45 PM 45.2°F7.3°C 27.7°F-2.4°C 50% 0.4 mph NW0.6 kmh NW 2.8 mph4.5 kmh 30.04 in1017.3 mb 0.00 in0.0 mm 0.00 in0.0 mm 0.00 in0.0 mm
09:00 PM 45.0°F7.2°C 28.0°F-2.2°C 51% 0.7 mph W1.1 kmh W 3.9 mph6.3 kmh 30.04 in1017.3 mb 0.00 in0.0 mm 0.00 in0.0 mm 0.00 in0.0 mm
09:15 PM 44.9°F7.2°C 28.3°F-2.1°C 52% 0.3 mph NNW0.5 kmh NNW 2.8 mph4.5 kmh 30.04 in1017.3 mb 0.00 in0.0 mm 0.00 in0.0 mm 0.00 in0.0 mm
09:30 PM 44.7°F7.1°C 28.1°F-2.2°C 52% 1.3 mph W2.1 kmh W 3.9 mph6.3 kmh 30.05 in1017.6 mb 0.00 in0.0 mm 0.00 in0.0 mm 0.00 in0.0 mm
09:45 PM 44.5°F6.9°C 28.9°F-1.7°C 54% 1.1 mph NW1.8 kmh NW 3.9 mph6.3 kmh 30.06 in1017.9 mb 0.00 in0.0 mm 0.00 in0.0 mm 0.00 in0.0 mm
10:00 PM 44.5°F6.9°C 28.9°F-1.7°C 54% 1.4 mph NNW2.3 kmh NNW 5.6 mph9.0 kmh 30.05 in1017.6 mb 0.00 in0.0 mm 0.00 in0.0 mm 0.00 in0.0 mm
10:15 PM 44.3°F6.8°C 28.7°F-1.8°C 54% 0.7 mph NNW1.1 kmh NNW 3.9 mph6.3 kmh 30.05 in1017.6 mb 0.00 in0.0 mm 0.00 in0.0 mm 0.00 in0.0 mm
10:30 PM 44.1°F6.7°C 27.6°F-2.4°C 52% 0.5 mph NNE0.8 kmh NNE 2.8 mph4.5 kmh 30.05 in1017.6 mb 0.00 in0.0 mm 0.00 in0.0 mm 0.00 in0.0 mm
10:45 PM 43.6°F6.4°C 26.6°F-3.0°C 51% 0.6 mph N1.0 kmh N 3.9 mph6.3 kmh 30.05 in1017.6 mb 0.00 in0.0 mm 0.00 in0.0 mm 0.00 in0.0 mm
11:00 PM 43.1°F6.2°C 26.6°F-3.0°C 52% 0.4 mph N0.6 kmh N 2.8 mph4.5 kmh 30.05 in1017.6 mb 0.00 in0.0 mm 0.00 in0.0 mm 0.00 in0.0 mm
11:15 PM 42.7°F5.9°C 26.3°F-3.2°C 52% 1.1 mph N1.8 kmh N 4.8 mph7.7 kmh 30.05 in1017.6 mb 0.00 in0.0 mm 0.00 in0.0 mm 0.00 in0.0 mm
11:30 PM 42.5°F5.8°C 26.1°F-3.3°C 52% 0.2 mph NNW0.3 kmh NNW 2.0 mph3.2 kmh 30.04 in1017.3 mb 0.00 in0.0 mm 0.00 in0.0 mm 0.00 in0.0 mm
11:45 PM 42.3°F5.7°C 25.9°F-3.4°C 52% 0.1 mph NE0.2 kmh NE 2.8 mph4.5 kmh 30.04 in1017.3 mb 0.00 in0.0 mm 0.00 in0.0 mm 0.00 in0.0 mm